QTR1192 OTHH-OEJN
Flight info
| Callsign | QTR1192 |
|---|---|
| Flight time | N/A |
| Altitude | 36000 |
| Route | TULUB2A/34L TULUB P700 BHR P699 NARMI N112 ULDEG N687 KSA M309 VEMEM |
| Aircraft | A320/M-SDE3FGHIRWY/LB1 |
Departure
| Time | N/A |
|---|---|
| Airport | Hamad International Airport (OTHH) |
Arrival
| Time | 2026-04-30 18:06 |
|---|---|
| Airport | King Abdulaziz International Airport (OEJN) |
| Time | Latitude | Longitude | Altitude | Speed | Heading |
|---|---|---|---|---|---|
| 2026-04-30 17:39 | 22.52279 | 40.57019 | 31379 ft | 385 kts | 245° |
| 2026-04-30 17:41 | 22.42835 | 40.36863 | 27158 ft | 368 kts | 246° |
| 2026-04-30 17:42 | 22.40521 | 40.31946 | 26200 ft | 366 kts | 246° |
| 2026-04-30 17:42 | 22.37075 | 40.24622 | 24820 ft | 364 kts | 246° |
| 2026-04-30 17:43 | 22.34689 | 40.19780 | 23903 ft | 368 kts | 237° |
| 2026-04-30 17:44 | 22.29332 | 40.13800 | 22784 ft | 366 kts | 228° |
| 2026-04-30 17:44 | 22.23994 | 40.08067 | 21492 ft | 357 kts | 228° |
| 2026-04-30 17:46 | 22.15326 | 39.98745 | 19230 ft | 348 kts | 227° |
| 2026-04-30 17:47 | 22.08524 | 39.91444 | 17349 ft | 340 kts | 227° |
| 2026-04-30 17:48 | 22.01920 | 39.84364 | 15560 ft | 330 kts | 226° |
| 2026-04-30 17:48 | 21.97089 | 39.79196 | 14362 ft | 322 kts | 226° |
| 2026-04-30 17:49 | 21.90795 | 39.72466 | 12605 ft | 315 kts | 226° |
| 2026-04-30 17:50 | 21.84651 | 39.65895 | 10927 ft | 309 kts | 226° |
| 2026-04-30 17:51 | 21.80145 | 39.61094 | 10147 ft | 292 kts | 226° |
| 2026-04-30 17:52 | 21.75901 | 39.56571 | 9230 ft | 286 kts | 226° |
| 2026-04-30 17:53 | 21.68867 | 39.49095 | 7446 ft | 281 kts | 225° |
| 2026-04-30 17:54 | 21.63372 | 39.43241 | 6138 ft | 274 kts | 225° |
| 2026-04-30 17:55 | 21.57958 | 39.37491 | 4770 ft | 272 kts | 226° |
| 2026-04-30 17:56 | 21.51761 | 39.33770 | 4182 ft | 243 kts | 175° |
| 2026-04-30 17:57 | 21.47386 | 39.35297 | 4505 ft | 214 kts | 162° |
| 2026-04-30 17:58 | 21.43240 | 39.35801 | 4550 ft | 205 kts | 220° |
| 2026-04-30 17:59 | 21.41592 | 39.30223 | 5764 ft | 182 kts | 264° |
| 2026-04-30 18:00 | 21.43978 | 39.25396 | 4333 ft | 198 kts | 330° |
| 2026-04-30 18:00 | 21.48534 | 39.24930 | 3590 ft | 256 kts | 355° |
| 2026-04-30 18:01 | 21.51849 | 39.23908 | 3004 ft | 236 kts | 337° |
| 2026-04-30 18:02 | 21.55961 | 39.22263 | 2208 ft | 188 kts | 339° |
| 2026-04-30 18:02 | 21.59097 | 39.21028 | 1592 ft | 138 kts | 340° |
| 2026-04-30 18:03 | 21.61731 | 39.19991 | 1057 ft | 133 kts | 341° |
| 2026-04-30 18:04 | 21.64322 | 39.18970 | 587 ft | 134 kts | 339° |
| 2026-04-30 18:05 | 21.67668 | 39.17618 | 33 ft | 99 kts | 329° |
| 2026-04-30 18:06 | 21.68399 | 39.17230 | 27 ft | 14 kts | 307° |
| 2026-04-30 18:07 | 21.68416 | 39.17156 | 28 ft | 2 kts | 238° |
| 2026-04-30 18:08 | 21.68342 | 39.17149 | 28 ft | 7 kts | 159° |
| 2026-04-30 18:09 | 21.68215 | 39.17204 | 29 ft | 2 kts | 170° |
| 2026-04-30 18:10 | 21.67986 | 39.17256 | 30 ft | 3 kts | 221° |
| 2026-04-30 18:11 | 21.67971 | 39.17178 | 30 ft | 3 kts | 248° |
| 2026-04-30 18:11 | 21.67739 | 39.17108 | 31 ft | 23 kts | 162° |
| 2026-04-30 18:12 | 21.67376 | 39.17109 | 32 ft | 10 kts | 223° |
| 2026-04-30 18:13 | 21.67329 | 39.17137 | 32 ft | 0 kts | 140° |
| 2026-04-30 18:13 | 21.67294 | 39.17170 | 33 ft | 0 kts | 137° |